createdAt,value
2023-01-15T00:00:46.183Z,87.01
2023-01-15T00:01:46.207Z,86.48
2023-01-15T00:02:46.286Z,86.58
2023-01-15T00:03:46.330Z,86.38
2023-01-15T00:04:46.293Z,85.62
2023-01-15T00:05:46.315Z,86.29
2023-01-15T00:06:46.342Z,86.00
2023-01-15T00:07:46.373Z,86.68
2023-01-15T00:08:46.703Z,86.29
2023-01-15T00:09:46.430Z,86.10
2023-01-15T00:10:46.463Z,86.00
2023-01-15T00:11:46.507Z,86.38
2023-01-15T00:12:46.531Z,86.96
2023-01-15T00:13:46.540Z,86.58
2023-01-15T00:14:46.823Z,86.29
2023-01-15T00:15:46.674Z,85.81
2023-01-15T00:16:46.627Z,86.10
2023-01-15T00:17:46.651Z,86.48
2023-01-15T00:18:46.681Z,86.96
2023-01-15T00:19:46.711Z,86.29
2023-01-15T00:20:46.984Z,86.87
2023-01-15T00:21:46.765Z,86.38
2023-01-15T00:22:46.795Z,86.19
2023-01-15T00:23:46.824Z,86.38
2023-01-15T00:24:46.848Z,86.38
2023-01-15T00:25:46.924Z,86.87
2023-01-15T00:26:46.918Z,85.52
2023-01-15T00:27:47.279Z,85.52
2023-01-15T00:28:46.957Z,86.19
2023-01-15T00:29:47.019Z,86.38
2023-01-15T00:30:47.015Z,86.29
2023-01-15T00:31:47.052Z,85.91
2023-01-15T00:32:47.072Z,86.19
2023-01-15T00:33:47.098Z,86.00
2023-01-15T00:34:47.133Z,86.29
2023-01-15T00:36:47.184Z,86.48
2023-01-15T00:37:47.211Z,86.87
2023-01-15T00:38:47.236Z,86.87
2023-01-15T00:39:47.272Z,86.68
2023-01-15T00:40:47.606Z,86.87
2023-01-15T00:41:47.376Z,86.96
2023-01-15T00:42:53.905Z,86.48
2023-01-15T00:43:47.393Z,86.00
2023-01-15T00:44:47.421Z,86.87
2023-01-15T00:45:47.431Z,87.35
2023-01-15T00:46:47.515Z,87.25
2023-01-15T00:47:47.735Z,87.25
2023-01-15T00:48:47.510Z,87.05
2023-01-15T00:49:47.544Z,86.87
2023-01-15T00:50:47.631Z,87.73
2023-01-15T00:51:47.618Z,87.25
2023-01-15T00:52:47.623Z,87.63
2023-01-15T00:53:47.754Z,87.82
2023-01-15T00:54:47.988Z,86.77
2023-01-15T00:55:47.805Z,87.92
2023-01-15T00:56:47.732Z,87.15
2023-01-15T00:57:47.761Z,87.44
2023-01-15T00:58:47.806Z,88.59
2023-01-15T00:59:47.817Z,89.46
2023-01-15T01:00:47.915Z,88.69
2023-01-15T01:01:48.324Z,88.02
2023-01-15T01:02:47.959Z,88.59
2023-01-15T01:03:47.929Z,89.36
2023-01-15T01:04:47.957Z,89.84
2023-01-15T01:06:48.015Z,90.03
2023-01-15T01:07:48.036Z,90.32
2023-01-15T01:08:48.067Z,90.42
2023-01-15T01:09:48.093Z,90.52
2023-01-15T01:10:48.118Z,90.90
2023-01-15T01:11:48.146Z,90.99
2023-01-15T01:12:48.178Z,90.99
2023-01-15T01:13:48.207Z,91.38
2023-01-15T01:14:48.542Z,90.70
2023-01-15T01:17:48.343Z,91.19
2023-01-15T01:18:48.372Z,91.19
2023-01-15T01:19:48.371Z,91.47
2023-01-15T01:20:48.403Z,91.47
2023-01-15T01:21:48.461Z,91.19
2023-01-15T01:22:48.460Z,90.80
2023-01-15T01:23:48.485Z,90.70
2023-01-15T01:24:48.527Z,91.47
2023-01-15T01:25:48.536Z,91.47
2023-01-15T01:26:48.864Z,91.66
2023-01-15T01:27:48.592Z,91.66
2023-01-15T01:28:48.635Z,91.66
2023-01-15T01:29:48.646Z,91.47
2023-01-15T01:30:48.676Z,91.66
2023-01-15T01:31:48.845Z,91.57
2023-01-15T01:32:49.030Z,91.66
2023-01-15T01:33:48.812Z,91.66
2023-01-15T01:34:48.783Z,91.57
2023-01-15T01:35:48.822Z,90.70
2023-01-15T01:36:48.845Z,90.52
2023-01-15T01:37:48.975Z,90.42
2023-01-15T01:38:48.897Z,90.22
2023-01-15T01:39:49.227Z,90.99
2023-01-15T01:40:48.975Z,91.09
2023-01-15T01:41:48.981Z,91.19
2023-01-15T01:42:49.017Z,91.38
2023-01-15T01:43:49.036Z,91.28
2023-01-15T01:44:49.067Z,90.90
2023-01-15T01:45:49.118Z,91.19
2023-01-15T01:46:49.124Z,91.13
2023-01-15T01:47:49.151Z,91.19
2023-01-15T01:48:49.178Z,90.61
2023-01-15T01:49:49.203Z,90.75
2023-01-15T01:50:49.230Z,91.33
2023-01-15T01:52:49.538Z,90.84
2023-01-15T01:53:49.319Z,90.46
2023-01-15T01:54:49.439Z,90.90
2023-01-15T01:56:49.395Z,91.04
2023-01-15T01:57:49.469Z,91.04
2023-01-15T01:58:49.462Z,90.99
2023-01-15T01:59:49.735Z,91.04
2023-01-15T02:00:49.629Z,90.70
2023-01-15T02:01:49.653Z,90.80
2023-01-15T02:02:49.579Z,90.90
2023-01-15T02:03:49.596Z,90.99
2023-01-15T02:04:49.637Z,91.13
2023-01-15T02:05:49.651Z,90.80
2023-01-15T02:06:49.933Z,91.04
2023-01-15T02:07:49.708Z,91.09
2023-01-15T02:08:49.735Z,90.99
2023-01-15T02:09:49.761Z,90.90
2023-01-15T02:10:49.891Z,90.84
2023-01-15T02:12:49.846Z,91.09
2023-01-15T02:13:50.125Z,90.70
2023-01-15T02:14:49.898Z,90.84
2023-01-15T02:15:49.925Z,90.84
2023-01-15T02:16:49.960Z,91.04
2023-01-15T02:17:50.100Z,90.70
2023-01-15T02:18:50.314Z,90.75
2023-01-15T02:19:50.042Z,90.75
2023-01-15T02:20:50.366Z,90.94
2023-01-15T02:21:50.099Z,91.13
2023-01-15T02:22:50.153Z,90.84
2023-01-15T02:23:50.156Z,91.19
2023-01-15T02:24:50.180Z,91.33
2023-01-15T02:25:50.216Z,90.94
2023-01-15T02:26:50.237Z,90.99
2023-01-15T02:27:50.573Z,91.13
2023-01-15T02:28:50.300Z,90.94
2023-01-15T02:29:50.323Z,90.80
2023-01-15T02:30:50.347Z,90.90
2023-01-15T02:31:50.430Z,91.04
2023-01-15T02:32:50.456Z,91.04
2023-01-15T02:33:50.688Z,90.84
2023-01-15T02:35:50.489Z,90.56
2023-01-15T02:36:50.534Z,90.66
2023-01-15T02:37:50.544Z,90.61
2023-01-15T02:38:50.579Z,90.99
2023-01-15T02:40:50.631Z,91.04
2023-01-15T02:41:50.652Z,90.70
2023-01-15T02:42:50.697Z,90.94
2023-01-15T02:43:50.716Z,90.84
2023-01-15T02:44:50.734Z,90.84
2023-01-15T02:45:51.026Z,90.56
2023-01-15T02:46:50.792Z,90.52
2023-01-15T02:47:50.826Z,90.27
2023-01-15T02:49:50.877Z,90.42
2023-01-15T02:50:50.910Z,90.56
2023-01-15T02:51:50.935Z,90.27
2023-01-15T02:52:51.284Z,89.55
2023-01-15T02:53:50.997Z,89.69
2023-01-15T02:54:51.018Z,90.17
2023-01-15T02:55:51.067Z,90.13
2023-01-15T02:56:51.081Z,89.55
2023-01-15T02:57:51.102Z,89.65
2023-01-15T02:58:51.144Z,90.37
2023-01-15T02:59:51.160Z,90.22
2023-01-15T03:00:51.258Z,89.94
2023-01-15T03:01:51.435Z,89.98
2023-01-15T03:02:51.491Z,90.17
2023-01-15T03:04:51.598Z,90.13
2023-01-15T03:05:51.325Z,90.37
2023-01-15T03:06:51.354Z,90.03
2023-01-15T03:07:51.392Z,89.98
2023-01-15T03:08:51.416Z,89.98
2023-01-15T03:09:51.440Z,90.22
2023-01-15T03:10:51.470Z,89.46
2023-01-15T03:11:51.507Z,89.46
2023-01-15T03:12:51.531Z,89.65
2023-01-15T03:13:51.566Z,89.98
2023-01-15T03:14:51.584Z,89.36
2023-01-15T03:15:51.611Z,89.17
2023-01-15T03:16:51.725Z,89.17
2023-01-15T03:17:52.078Z,87.63
2023-01-15T03:18:51.692Z,87.92
2023-01-15T03:19:51.733Z,88.02
2023-01-15T03:21:51.776Z,88.79
2023-01-15T03:22:51.808Z,89.17
2023-01-15T03:23:52.135Z,89.46
2023-01-15T03:24:51.863Z,89.75
2023-01-15T03:25:51.899Z,89.94
2023-01-15T03:26:51.921Z,90.42
2023-01-15T03:27:51.946Z,90.32
2023-01-15T03:28:51.983Z,90.70
2023-01-15T03:29:52.308Z,90.42
2023-01-15T03:30:52.155Z,90.22
2023-01-15T03:31:52.062Z,90.03
2023-01-15T03:32:52.083Z,90.13
2023-01-15T03:33:52.112Z,90.22
2023-01-15T03:34:52.141Z,89.94
2023-01-15T03:35:52.273Z,90.90
2023-01-15T03:36:52.198Z,90.80
2023-01-15T03:37:52.228Z,90.52
2023-01-15T03:38:52.261Z,90.61
2023-01-15T03:40:52.607Z,90.13
2023-01-15T03:41:52.339Z,90.52
2023-01-15T03:42:52.366Z,90.32
2023-01-15T03:43:52.395Z,90.32
2023-01-15T03:44:52.433Z,90.42
2023-01-15T03:45:52.519Z,90.42
2023-01-15T03:46:52.491Z,90.32
2023-01-15T03:47:52.807Z,90.61
2023-01-15T03:48:52.539Z,90.70
2023-01-15T03:49:52.675Z,90.90
2023-01-15T03:50:52.590Z,90.70
2023-01-15T03:51:52.620Z,90.61
2023-01-15T03:52:52.645Z,90.70
2023-01-15T03:53:52.723Z,90.42
2023-01-15T03:54:52.955Z,90.42
2023-01-15T03:55:52.734Z,90.61
2023-01-15T03:56:52.857Z,90.99
2023-01-15T03:57:52.798Z,90.90
2023-01-15T03:58:52.823Z,90.52
2023-01-15T03:59:52.848Z,90.99
2023-01-15T04:00:53.475Z,90.99
2023-01-15T04:01:53.160Z,90.90
2023-01-15T04:02:52.929Z,90.52
2023-01-15T04:04:52.984Z,90.42
2023-01-15T04:05:53.025Z,90.52
2023-01-15T04:06:53.291Z,90.90
2023-01-15T04:07:53.075Z,90.03
2023-01-15T04:09:53.121Z,90.61
2023-01-15T04:10:53.153Z,90.32
2023-01-15T04:11:53.182Z,89.84
2023-01-15T04:12:53.561Z,89.84
2023-01-15T04:13:53.233Z,89.94
2023-01-15T04:14:53.269Z,90.32
2023-01-15T04:15:53.390Z,90.13
2023-01-15T04:16:53.358Z,89.65
2023-01-15T04:17:53.344Z,89.75
2023-01-15T04:19:53.650Z,90.22
2023-01-15T04:20:53.426Z,89.94
2023-01-15T04:21:53.460Z,90.52
2023-01-15T04:22:53.540Z,90.80
2023-01-15T04:25:53.868Z,89.94
2023-01-15T04:26:53.602Z,90.52
2023-01-15T04:27:53.628Z,90.70
2023-01-15T04:28:53.659Z,90.42
2023-01-15T04:29:53.679Z,89.84
2023-01-15T04:30:53.805Z,89.84
2023-01-15T04:31:53.755Z,90.22
2023-01-15T04:32:54.013Z,89.94
2023-01-15T04:34:53.823Z,89.65
2023-01-15T04:35:53.848Z,89.07
2023-01-15T04:36:53.883Z,88.98
2023-01-15T04:37:53.907Z,88.69
2023-01-15T04:38:53.930Z,88.79
2023-01-15T04:39:54.263Z,88.49
2023-01-15T04:40:54.007Z,89.26
2023-01-15T04:41:54.128Z,89.17
2023-01-15T04:42:54.051Z,89.84
2023-01-15T04:43:54.080Z,89.26
2023-01-15T04:44:54.101Z,88.69
2023-01-15T04:45:54.139Z,88.02
2023-01-15T04:46:54.163Z,87.73
2023-01-15T04:47:54.182Z,87.73
2023-01-15T04:48:54.222Z,87.82
2023-01-15T04:49:54.243Z,88.69
2023-01-15T04:50:54.269Z,89.07
2023-01-15T04:51:54.305Z,89.17
2023-01-15T04:52:55.336Z,88.59
2023-01-15T04:53:54.349Z,87.92
2023-01-15T04:54:54.386Z,87.73
2023-01-15T04:55:54.403Z,88.59
2023-01-15T04:56:54.431Z,88.45
2023-01-15T04:57:54.480Z,88.79
2023-01-15T04:59:54.932Z,88.79
2023-01-15T05:00:54.541Z,88.69
2023-01-15T05:02:03.906Z,89.07
2023-01-15T05:02:54.664Z,89.94
2023-01-15T05:03:54.671Z,89.46
2023-01-15T05:04:54.673Z,89.36
2023-01-15T05:05:54.986Z,89.89
2023-01-15T05:06:54.740Z,89.03
2023-01-15T05:07:54.777Z,88.93
2023-01-15T05:08:54.822Z,89.94
2023-01-15T05:09:54.808Z,89.65
2023-01-15T05:10:54.832Z,89.17
2023-01-15T05:11:55.160Z,89.46
2023-01-15T05:12:54.888Z,89.12
2023-01-15T05:13:54.916Z,89.03
2023-01-15T05:14:54.942Z,88.40
2023-01-15T05:15:55.127Z,88.26
2023-01-15T05:16:55.011Z,89.12
2023-01-15T05:18:55.054Z,89.26
2023-01-15T05:19:55.070Z,88.93
2023-01-15T05:20:55.100Z,89.32
2023-01-15T05:21:55.136Z,89.51
2023-01-15T05:22:55.160Z,89.41
2023-01-15T05:23:55.501Z,89.70
2023-01-15T05:24:55.228Z,89.41
2023-01-15T05:25:55.246Z,89.12
2023-01-15T05:26:55.279Z,88.55
2023-01-15T05:27:55.295Z,88.93
2023-01-15T05:28:55.334Z,89.12
2023-01-15T05:29:55.347Z,89.12
2023-01-15T05:30:55.386Z,88.74
2023-01-15T05:31:55.410Z,89.12
2023-01-15T05:32:55.441Z,89.89
2023-01-15T05:33:55.476Z,89.79
2023-01-15T05:34:55.499Z,88.74
2023-01-15T05:35:55.526Z,89.41
2023-01-15T05:36:55.552Z,89.12
2023-01-15T05:37:55.838Z,89.12
2023-01-15T05:38:55.627Z,88.26
2023-01-15T05:39:55.626Z,88.65
2023-01-15T05:40:55.755Z,88.65
2023-01-15T05:41:55.685Z,88.55
2023-01-15T05:42:55.721Z,88.65
2023-01-15T05:43:55.740Z,89.12
2023-01-15T05:44:56.070Z,88.35
2023-01-15T05:45:55.811Z,88.74
2023-01-15T05:46:55.909Z,88.35
2023-01-15T05:47:55.863Z,88.17
2023-01-15T05:48:55.884Z,89.12
2023-01-15T05:49:55.956Z,88.55
2023-01-15T05:50:55.935Z,88.55
2023-01-15T05:52:55.991Z,89.89
2023-01-15T05:53:56.115Z,89.22
2023-01-15T05:54:56.043Z,89.12
2023-01-15T05:55:56.091Z,88.55
2023-01-15T05:56:56.130Z,88.26
2023-01-15T05:57:56.386Z,88.45
2023-01-15T05:58:56.186Z,89.03
2023-01-15T05:59:56.203Z,89.12
2023-01-15T06:00:56.651Z,88.93
2023-01-15T06:01:56.244Z,88.74
2023-01-15T06:02:56.385Z,88.84
2023-01-15T06:03:56.589Z,88.93
2023-01-15T06:04:56.320Z,89.12
2023-01-15T06:05:56.356Z,88.55
2023-01-15T06:06:56.385Z,87.49
2023-01-15T06:07:56.404Z,87.30
2023-01-15T06:08:56.529Z,88.55
2023-01-15T06:09:56.712Z,88.65
2023-01-15T06:10:56.484Z,88.93
2023-01-15T06:11:56.528Z,87.59
2023-01-15T06:12:56.542Z,88.74
2023-01-15T06:13:56.587Z,88.45
2023-01-15T06:14:56.601Z,89.70
2023-01-15T06:15:56.930Z,89.03
2023-01-15T06:16:56.658Z,88.45
2023-01-15T06:17:56.696Z,88.74
2023-01-15T06:18:56.723Z,89.03
2023-01-15T06:19:56.733Z,88.07
2023-01-15T06:20:56.756Z,88.74
2023-01-15T06:21:56.810Z,89.22
2023-01-15T06:22:56.821Z,89.22
2023-01-15T06:23:56.855Z,89.32
2023-01-15T06:24:56.883Z,89.99
2023-01-15T06:25:56.924Z,89.99
2023-01-15T06:26:56.933Z,90.08
2023-01-15T06:27:57.120Z,89.61
2023-01-15T06:28:57.283Z,90.18
2023-01-15T06:29:57.023Z,90.47
2023-01-15T06:30:57.375Z,89.61
2023-01-15T06:31:57.086Z,89.70
2023-01-15T06:32:57.090Z,89.70
2023-01-15T06:33:57.148Z,90.18
2023-01-15T06:34:57.159Z,90.08
2023-01-15T06:35:57.483Z,90.08
2023-01-15T06:36:57.235Z,89.12
2023-01-15T06:37:57.235Z,89.51
2023-01-15T06:38:57.256Z,90.37
2023-01-15T06:39:57.282Z,89.89
2023-01-15T06:40:57.313Z,89.12
2023-01-15T06:41:57.715Z,90.08
2023-01-15T06:42:57.385Z,90.18
2023-01-15T06:43:57.394Z,89.70
2023-01-15T06:44:57.428Z,89.89
2023-01-15T06:45:57.453Z,89.99
2023-01-15T06:46:57.476Z,90.08
2023-01-15T06:47:57.508Z,89.79
2023-01-15T06:48:57.783Z,89.41
2023-01-15T06:49:57.567Z,90.08
2023-01-15T06:50:57.594Z,89.89
2023-01-15T06:51:57.680Z,89.61
2023-01-15T06:52:57.639Z,89.12
2023-01-15T06:53:57.673Z,89.51
2023-01-15T06:54:57.971Z,90.56
2023-01-15T06:55:57.725Z,89.65
2023-01-15T06:56:57.754Z,89.32
2023-01-15T06:57:57.784Z,88.74
2023-01-15T06:58:57.809Z,89.70
2023-01-15T06:59:57.876Z,89.12
2023-01-15T07:00:58.353Z,89.22
2023-01-15T07:02:57.924Z,89.03
2023-01-15T07:03:58.008Z,88.74
2023-01-15T07:04:57.978Z,89.12
2023-01-15T07:05:58.079Z,89.08
2023-01-15T07:06:58.290Z,88.93
2023-01-15T07:07:58.091Z,89.41
2023-01-15T07:09:58.120Z,89.61
2023-01-15T07:10:58.549Z,89.12
2023-01-15T07:11:58.177Z,89.56
2023-01-15T07:12:58.191Z,89.12
2023-01-15T07:13:58.468Z,89.70
2023-01-15T07:14:58.254Z,89.79
2023-01-15T07:15:58.309Z,90.04
2023-01-15T07:16:58.353Z,89.70
2023-01-15T07:17:58.346Z,89.89
2023-01-15T07:18:58.369Z,89.99
2023-01-15T07:19:58.382Z,89.70
2023-01-15T07:20:58.789Z,90.08
2023-01-15T07:21:58.455Z,89.85
2023-01-15T07:22:58.465Z,89.61
2023-01-15T07:23:58.514Z,89.70
2023-01-15T07:24:58.518Z,89.99
2023-01-15T07:25:58.572Z,90.56
2023-01-15T07:26:58.611Z,90.52
2023-01-15T07:27:58.903Z,90.18
2023-01-15T07:28:58.647Z,90.08
2023-01-15T07:29:58.731Z,90.52
2023-01-15T07:30:58.794Z,89.27
2023-01-15T07:31:58.762Z,89.03
2023-01-15T07:33:58.820Z,89.56
2023-01-15T07:35:59.072Z,89.99
2023-01-15T07:36:58.860Z,89.99
2023-01-15T07:37:58.879Z,90.33
2023-01-15T07:38:58.911Z,90.28
2023-01-15T07:39:58.943Z,90.37
2023-01-15T07:40:58.961Z,90.37
2023-01-15T07:41:59.004Z,90.56
2023-01-15T07:42:59.532Z,90.56
2023-01-15T07:43:59.082Z,90.95
2023-01-15T07:44:59.074Z,90.37
2023-01-15T07:46:59.119Z,90.61
2023-01-15T07:47:59.160Z,90.75
2023-01-15T07:48:59.180Z,90.56
2023-01-15T07:49:59.579Z,90.08
2023-01-15T07:50:59.238Z,90.18
2023-01-15T07:51:59.278Z,89.41
2023-01-15T07:52:59.299Z,89.32
2023-01-15T07:53:59.324Z,89.99
2023-01-15T07:54:59.372Z,90.18
2023-01-15T07:55:59.374Z,90.75
2023-01-15T07:56:59.426Z,90.47
2023-01-15T07:57:59.428Z,90.37
2023-01-15T07:58:59.467Z,90.28
2023-01-15T07:59:59.484Z,89.70
2023-01-15T08:00:59.680Z,89.89
2023-01-15T08:01:59.693Z,89.65
2023-01-15T08:02:59.927Z,89.70
2023-01-15T08:03:59.653Z,89.70
2023-01-15T08:04:59.725Z,89.61
2023-01-15T08:05:59.745Z,89.51
2023-01-15T08:06:59.807Z,89.61
2023-01-15T08:07:59.816Z,89.99
2023-01-15T08:08:59.827Z,89.51
2023-01-15T08:10:00.001Z,89.22
2023-01-15T08:10:59.820Z,89.70
2023-01-15T08:11:59.897Z,89.70
2023-01-15T08:12:59.950Z,89.89
2023-01-15T08:13:59.894Z,89.32
2023-01-15T08:14:59.991Z,89.51
2023-01-15T08:15:59.916Z,89.89
2023-01-15T08:16:59.953Z,89.41
2023-01-15T08:17:59.981Z,89.70
2023-01-15T08:19:00.003Z,89.32
2023-01-15T08:20:00.049Z,89.08
2023-01-15T08:21:00.066Z,89.22
2023-01-15T08:22:00.117Z,88.51
2023-01-15T08:23:00.371Z,88.45
2023-01-15T08:24:00.146Z,88.55
2023-01-15T08:25:00.219Z,87.40
2023-01-15T08:26:00.193Z,88.51
2023-01-15T08:27:00.230Z,87.68
2023-01-15T08:28:00.251Z,87.30
2023-01-15T08:29:00.573Z,87.35
2023-01-15T08:30:00.308Z,88.45
2023-01-15T08:31:00.332Z,87.88
2023-01-15T08:32:03.086Z,87.59
2023-01-15T08:33:00.400Z,88.02
2023-01-15T08:34:00.433Z,88.55
2023-01-15T08:35:00.703Z,87.93
2023-01-15T08:36:00.571Z,87.35
2023-01-15T08:37:00.540Z,86.88
2023-01-15T08:38:00.530Z,86.49
2023-01-15T08:39:00.551Z,86.11
2023-01-15T08:40:00.596Z,86.40
2023-01-15T08:41:00.610Z,87.35
2023-01-15T08:42:00.634Z,86.68
2023-01-15T08:43:00.670Z,87.16
2023-01-15T08:44:00.695Z,87.45
2023-01-15T08:45:00.833Z,87.35
2023-01-15T08:46:00.800Z,88.22
2023-01-15T08:47:01.019Z,88.41
2023-01-15T08:48:00.953Z,87.74
2023-01-15T08:49:00.834Z,88.41
2023-01-15T08:50:00.867Z,88.98
2023-01-15T08:51:00.877Z,88.89
2023-01-15T08:52:00.968Z,88.79
2023-01-15T08:53:00.934Z,88.22
2023-01-15T08:54:01.211Z,87.35
2023-01-15T08:55:01.000Z,87.84
2023-01-15T08:57:01.054Z,87.84
2023-01-15T08:58:01.078Z,87.45
2023-01-15T08:59:01.101Z,87.93
2023-01-15T09:00:01.129Z,88.41
2023-01-15T09:01:01.595Z,87.84
2023-01-15T09:02:01.315Z,88.41
2023-01-15T09:03:01.209Z,88.35
2023-01-15T09:04:01.341Z,88.41
2023-01-15T09:05:01.486Z,88.51
2023-01-15T09:06:01.285Z,88.45
2023-01-15T09:08:01.597Z,87.64
2023-01-15T09:09:01.373Z,88.02
2023-01-15T09:10:01.409Z,88.98
2023-01-15T09:11:01.427Z,89.08
2023-01-15T09:12:01.468Z,88.74
2023-01-15T09:13:01.556Z,88.70
2023-01-15T09:14:01.546Z,88.31
2023-01-15T09:15:03.537Z,88.89
2023-01-15T09:17:01.597Z,89.08
2023-01-15T09:18:01.618Z,89.65
2023-01-15T09:19:01.649Z,89.37
2023-01-15T09:20:01.668Z,90.04
2023-01-15T09:21:01.701Z,89.08
2023-01-15T09:22:01.981Z,88.65
2023-01-15T09:23:01.757Z,89.18
2023-01-15T09:25:01.807Z,89.65
2023-01-15T09:26:01.838Z,89.65
2023-01-15T09:27:01.870Z,89.85
2023-01-15T09:28:01.891Z,89.56
2023-01-15T09:29:02.644Z,89.85
2023-01-15T09:30:01.970Z,89.94
2023-01-15T09:31:02.050Z,89.85
2023-01-15T09:32:02.020Z,89.85
2023-01-15T09:33:02.035Z,89.94
2023-01-15T09:34:02.058Z,89.37
2023-01-15T09:35:02.084Z,89.89
2023-01-15T09:36:02.122Z,89.65
2023-01-15T09:37:02.141Z,89.89
2023-01-15T09:38:02.221Z,89.79
2023-01-15T09:39:02.351Z,89.61
2023-01-15T09:40:02.241Z,89.70
2023-01-15T09:41:02.251Z,89.99
2023-01-15T09:42:02.581Z,89.70
2023-01-15T09:43:02.318Z,89.70
2023-01-15T09:44:02.339Z,89.61
2023-01-15T09:45:02.370Z,90.08
2023-01-15T09:46:02.405Z,89.41
2023-01-15T09:47:02.424Z,89.12
2023-01-15T09:48:02.510Z,89.61
2023-01-15T09:49:02.556Z,89.32
2023-01-15T09:50:02.530Z,88.65
2023-01-15T09:51:02.529Z,89.32
2023-01-15T09:52:02.552Z,89.41
2023-01-15T09:53:02.589Z,88.93
2023-01-15T09:54:02.904Z,89.12
2023-01-15T09:55:02.643Z,89.41
2023-01-15T09:56:02.663Z,89.61
2023-01-15T09:57:02.743Z,89.70
2023-01-15T09:58:02.726Z,89.89
2023-01-15T09:59:02.742Z,89.12
2023-01-15T10:00:02.787Z,89.32
2023-01-15T10:01:03.162Z,88.74
2023-01-15T10:02:02.834Z,87.78
2023-01-15T10:03:02.892Z,87.98
2023-01-15T10:04:02.964Z,86.72
2023-01-15T10:05:04.957Z,87.68
2023-01-15T10:06:02.961Z,87.49
2023-01-15T10:07:02.964Z,86.82
2023-01-15T10:08:02.989Z,86.34
2023-01-15T10:09:03.029Z,85.58
2023-01-15T10:11:03.104Z,87.49
2023-01-15T10:12:03.147Z,86.92
2023-01-15T10:13:03.142Z,87.21
2023-01-15T10:14:03.457Z,87.21
2023-01-15T10:15:03.198Z,86.25
2023-01-15T10:16:03.273Z,86.34
2023-01-15T10:17:03.304Z,86.92
2023-01-15T10:18:03.266Z,87.40
2023-01-15T10:19:03.400Z,87.68
2023-01-15T10:20:03.321Z,86.25
2023-01-15T10:21:03.594Z,85.67
2023-01-15T10:22:03.423Z,85.58
2023-01-15T10:23:03.462Z,85.77
2023-01-15T10:24:03.429Z,85.10
2023-01-15T10:25:03.476Z,85.00
2023-01-15T10:26:03.493Z,84.81
2023-01-15T10:27:03.514Z,85.77
2023-01-15T10:28:03.847Z,85.96
2023-01-15T10:29:03.582Z,85.00
2023-01-15T10:30:03.591Z,85.28
2023-01-15T10:31:03.695Z,85.28
2023-01-15T10:32:03.653Z,84.71
2023-01-15T10:33:03.778Z,84.81
2023-01-15T10:34:03.706Z,85.00
2023-01-15T10:35:03.990Z,85.77
2023-01-15T10:36:03.757Z,85.86
2023-01-15T10:37:03.801Z,85.28
2023-01-15T10:38:03.835Z,85.10
2023-01-15T10:39:03.857Z,84.04
2023-01-15T10:40:03.875Z,84.33
2023-01-15T10:41:03.917Z,84.42
2023-01-15T10:42:04.183Z,83.94
2023-01-15T10:43:03.982Z,84.33
2023-01-15T10:44:03.994Z,84.81
2023-01-15T10:45:04.011Z,83.85
2023-01-15T10:46:04.077Z,83.94
2023-01-15T10:47:04.071Z,84.61
2023-01-15T10:48:04.092Z,84.71
2023-01-15T10:49:04.425Z,85.19
2023-01-15T10:50:04.193Z,84.04
2023-01-15T10:51:04.208Z,83.94
2023-01-15T10:52:04.245Z,85.28
2023-01-15T10:53:04.239Z,84.71
2023-01-15T10:54:04.261Z,84.61
2023-01-15T10:55:04.287Z,84.42
2023-01-15T10:56:04.562Z,84.81
2023-01-15T10:57:04.348Z,84.23
2023-01-15T10:58:10.222Z,85.48
2023-01-15T10:59:04.407Z,84.91
2023-01-15T11:00:04.430Z,84.71
2023-01-15T11:01:04.606Z,85.19
2023-01-15T11:02:04.654Z,84.71
2023-01-15T11:03:04.970Z,84.81
2023-01-15T11:04:04.537Z,84.81
2023-01-15T11:05:04.603Z,83.85
2023-01-15T11:06:04.591Z,84.04
2023-01-15T11:07:04.635Z,84.81
2023-01-15T11:09:05.926Z,83.56
2023-01-15T11:09:10.187Z,83.85
2023-01-15T11:10:04.953Z,85.19
2023-01-15T11:11:04.736Z,83.85
2023-01-15T11:12:04.758Z,84.81
2023-01-15T11:13:04.807Z,85.10
2023-01-15T11:14:04.806Z,85.10
2023-01-15T11:15:04.837Z,85.28
2023-01-15T11:16:05.257Z,85.48
2023-01-15T11:17:04.892Z,85.19
2023-01-15T11:18:04.916Z,84.81
2023-01-15T11:19:06.482Z,84.81
2023-01-15T11:20:05.002Z,84.33
2023-01-15T11:21:04.999Z,84.81
2023-01-15T11:22:05.285Z,85.00
2023-01-15T11:23:05.063Z,85.00
2023-01-15T11:24:05.090Z,84.42
2023-01-15T11:25:05.110Z,84.61
2023-01-15T11:26:05.131Z,84.42
2023-01-15T11:27:05.160Z,84.04
2023-01-15T11:28:05.488Z,83.18
2023-01-15T11:29:05.533Z,83.56
2023-01-15T11:30:05.251Z,83.94
2023-01-15T11:31:05.321Z,84.71
2023-01-15T11:32:05.302Z,84.81
2023-01-15T11:33:05.335Z,84.91
2023-01-15T11:34:05.382Z,83.75
2023-01-15T11:35:05.631Z,83.75
2023-01-15T11:36:05.404Z,82.94
2023-01-15T11:37:05.435Z,82.79
2023-01-15T11:38:05.495Z,83.18
2023-01-15T11:39:05.501Z,82.51
2023-01-15T11:40:05.527Z,82.89
2023-01-15T11:41:05.554Z,82.98
2023-01-15T11:42:05.824Z,83.52
2023-01-15T11:43:05.609Z,83.85
2023-01-15T11:44:05.736Z,83.37
2023-01-15T11:45:05.657Z,82.70
2023-01-15T11:46:05.702Z,82.51
2023-01-15T11:47:05.736Z,81.93
2023-01-15T11:49:06.097Z,82.60
2023-01-15T11:50:05.794Z,82.94
2023-01-15T11:51:05.821Z,82.85
2023-01-15T11:52:05.853Z,83.23
2023-01-15T11:53:05.897Z,83.04
2023-01-15T11:54:05.959Z,82.56
2023-01-15T11:55:05.942Z,81.51
2023-01-15T11:56:06.215Z,81.79
2023-01-15T11:57:05.979Z,81.79
2023-01-15T11:58:06.013Z,83.71
2023-01-15T11:59:06.051Z,82.41
2023-01-15T12:00:06.074Z,82.98
2023-01-15T12:01:06.142Z,83.52
2023-01-15T12:02:06.123Z,84.28
2023-01-15T12:03:06.649Z,83.23
2023-01-15T12:04:06.350Z,84.09
2023-01-15T12:05:06.254Z,85.05
2023-01-15T12:06:06.253Z,83.23
2023-01-15T12:08:06.283Z,83.33
2023-01-15T12:09:06.333Z,83.91
2023-01-15T12:10:06.598Z,83.71
2023-01-15T12:11:25.088Z,83.18
2023-01-15T12:12:06.392Z,83.33
2023-01-15T12:13:06.423Z,82.56
2023-01-15T12:14:06.464Z,83.91
2023-01-15T12:15:06.543Z,84.86
2023-01-15T12:16:06.554Z,84.28
2023-01-15T12:17:06.885Z,84.95
2023-01-15T12:18:07.856Z,85.25
2023-01-15T12:19:06.703Z,85.82
2023-01-15T12:20:06.727Z,85.72
2023-01-15T12:21:06.743Z,84.95
2023-01-15T12:22:06.793Z,86.68
2023-01-15T12:23:08.963Z,85.82
2023-01-15T12:24:07.005Z,85.15
2023-01-15T12:25:06.746Z,84.67
2023-01-15T12:26:06.783Z,85.05
2023-01-15T12:27:07.318Z,85.25
2023-01-15T12:28:06.860Z,84.58
2023-01-15T12:29:06.861Z,84.67
2023-01-15T12:30:07.059Z,84.00
2023-01-15T12:31:07.492Z,84.09
2023-01-15T12:32:07.076Z,83.33
2023-01-15T12:33:07.079Z,84.48
2023-01-15T12:34:07.019Z,85.53
2023-01-15T12:35:07.443Z,85.53
2023-01-15T12:36:07.080Z,83.91
2023-01-15T12:37:07.114Z,84.48
2023-01-15T12:38:08.641Z,84.00
2023-01-15T12:39:07.342Z,84.77
2023-01-15T12:40:07.295Z,83.23
2023-01-15T12:41:07.319Z,83.71
2023-01-15T12:42:07.354Z,83.85
2023-01-15T12:43:07.278Z,83.52
2023-01-15T12:44:07.280Z,83.33
2023-01-15T12:45:07.723Z,84.09
2023-01-15T12:46:07.713Z,83.71
2023-01-15T12:47:07.417Z,83.61
2023-01-15T12:48:07.445Z,83.23
2023-01-15T12:49:07.463Z,83.91
2023-01-15T12:50:07.474Z,84.33
2023-01-15T12:51:07.448Z,83.81
2023-01-15T12:52:07.788Z,83.23
2023-01-15T12:53:07.518Z,83.33
2023-01-15T12:54:08.189Z,82.75
2023-01-15T12:55:07.620Z,82.75
2023-01-15T12:56:07.626Z,83.71
2023-01-15T12:57:07.695Z,85.25
2023-01-15T12:58:07.672Z,84.14
2023-01-15T12:59:07.987Z,82.56
2023-01-15T13:00:08.156Z,84.19
2023-01-15T13:01:07.973Z,83.04
2023-01-15T13:02:07.856Z,82.27
2023-01-15T13:03:07.791Z,83.33
2023-01-15T13:04:07.878Z,82.85
2023-01-15T13:05:08.177Z,82.56
2023-01-15T13:06:07.923Z,81.70
2023-01-15T13:07:07.959Z,81.70
2023-01-15T13:08:08.038Z,81.22
2023-01-15T13:09:07.994Z,83.33
2023-01-15T13:10:08.047Z,82.27
2023-01-15T13:11:08.301Z,82.94
2023-01-15T13:12:08.053Z,82.70
2023-01-15T13:13:08.096Z,82.18
2023-01-15T13:14:08.122Z,81.89
2023-01-15T13:15:08.119Z,81.79
2023-01-15T13:16:08.195Z,81.12
2023-01-15T13:17:08.498Z,81.22
2023-01-15T13:18:08.305Z,81.22
2023-01-15T13:19:08.248Z,81.51
2023-01-15T13:20:08.322Z,82.08
2023-01-15T13:21:08.334Z,81.31
2023-01-15T13:22:08.304Z,82.94
2023-01-15T13:23:08.396Z,82.08
2023-01-15T13:24:08.674Z,83.14
2023-01-15T13:25:08.427Z,82.56
2023-01-15T13:26:08.419Z,81.41
2023-01-15T13:27:08.444Z,80.93